Terminal Aerodrome Forecast
Issued by NWS Newport/Morehead City, NC

Home | Current Version | Previous Version | Text Only | Print | Product List | Glossary On
Versions: 1 2 3 4 5 6 7 8 9 10 11 12 13 14 15 16 17 18 19 20
067
FTUS42 KMHX 231026 AAA
TAFEWN
TAF AMD
KEWN 231026Z 2310/2406 VRB03KT P6SM OVC004
     FM231200 24007KT P6SM SCT010 BKN035
     FM231800 25005KT P6SM VCSH BKN035
     FM240000 29008KT P6SM BKN025=

USA.gov is the U.S. government's official web portal to all federal, state and local government web resources and services.